Time;durP1;ratioP1;P1;durP2;ratioP2;P2;SDS_P1;SDS_P2;PMS_P1;PMS_P2;Temp;Humidity;BMP_temperature;BMP_pressure;BME280_temperature;BME280_humidity;BME280_pressure;Samples;Min_cycle;Max_cycle;Signal;HPM_P1;HPM_P2
2022/11/30 00:00:21;;;;;;;0.38;0.38;;;4.30;99.90;;;;;;5050842;28;20025;-83
2022/11/30 00:02:52;;;;;;;0.10;0.10;;;4.30;99.90;;;;;;5033495;28;20087;-83
2022/11/30 00:05:19;;;;;;;4.20;1.48;;;4.40;99.90;;;;;;5062678;28;20031;-83
2022/11/30 00:07:45;;;;;;;0.38;0.38;;;4.50;99.90;;;;;;5048605;28;20082;-83
2022/11/30 00:10:11;;;;;;;0.10;0.10;;;4.70;99.90;;;;;;5028452;28;20032;-83
2022/11/30 00:12:37;;;;;;;0.25;0.25;;;4.60;99.90;;;;;;5050295;28;20040;-85
2022/11/30 00:15:03;;;;;;;0.20;0.20;;;4.40;99.90;;;;;;5050411;28;20051;-84
2022/11/30 00:17:29;;;;;;;0.10;0.10;;;4.40;99.90;;;;;;5050258;28;20079;-82
2022/11/30 00:19:54;;;;;;;0.60;0.60;;;4.40;99.90;;;;;;5050196;28;20024;-83
2022/11/30 00:22:20;;;;;;;0.68;0.55;;;4.30;99.90;;;;;;5049990;28;20028;-85
2022/11/30 00:24:45;;;;;;;0.85;0.85;;;4.20;99.90;;;;;;5053047;28;20036;-85
2022/11/30 00:27:11;;;;;;;0.20;0.20;;;4.10;99.90;;;;;;5049875;28;20033;-85
2022/11/30 00:29:37;;;;;;;0.40;0.40;;;4.10;99.90;;;;;;5049898;28;20032;-85
2022/11/30 00:32:02;;;;;;;0.25;0.25;;;4.10;99.90;;;;;;5048805;28;20414;-86
2022/11/30 00:34:28;;;;;;;0.15;0.15;;;4.00;99.90;;;;;;5032128;28;20568;-85
2022/11/30 00:36:54;;;;;;;0.40;0.40;;;3.90;99.90;;;;;;5051002;28;20044;-86
2022/11/30 00:39:19;;;;;;;0.20;0.20;;;3.60;99.90;;;;;;5051217;28;20029;-85
2022/11/30 00:41:45;;;;;;;1.35;0.75;;;3.60;99.90;;;;;;5053154;28;20037;-86
2022/11/30 00:44:11;;;;;;;0.10;0.10;;;3.50;99.90;;;;;;5050869;28;20655;-86
2022/11/30 00:46:36;;;;;;;0.70;0.70;;;3.60;99.90;;;;;;5032815;28;20622;-85
2022/11/30 00:49:02;;;;;;;0.28;0.28;;;3.40;99.90;;;;;;5050583;28;20849;-86
2022/11/30 00:51:27;;;;;;;0.10;0.10;;;3.50;99.90;;;;;;5029415;28;20044;-88
2022/11/30 00:53:53;;;;;;;0.20;0.20;;;3.40;99.90;;;;;;5031885;28;20044;-89
2022/11/30 00:56:19;;;;;;;0.40;0.40;;;3.50;99.90;;;;;;5050130;28;20041;-86
2022/11/30 00:58:44;;;;;;;0.30;0.30;;;3.50;99.90;;;;;;5030532;28;20025;-87
2022/11/30 01:01:10;;;;;;;0.10;0.10;;;3.40;99.90;;;;;;5049241;28;20374;-86
2022/11/30 01:03:36;;;;;;;0.45;0.45;;;3.30;99.90;;;;;;5040075;28;20028;-87
2022/11/30 01:06:07;;;;;;;0.20;0.20;;;3.40;99.90;;;;;;5031260;28;20069;-88
2022/11/30 01:08:33;;;;;;;0.22;0.22;;;3.30;99.90;;;;;;5031393;28;20039;-87
2022/11/30 01:11:27;;;;;;;0.43;0.43;;;3.40;99.90;;;;;;5049763;28;20576;-84
2022/11/30 01:13:53;;;;;;;0.10;0.10;;;3.40;99.90;;;;;;5048335;28;20104;-84
2022/11/30 01:16:25;;;;;;;0.30;0.30;;;3.30;99.90;;;;;;5030006;28;20049;-85
2022/11/30 01:18:51;;;;;;;0.32;0.32;;;3.30;99.90;;;;;;5047431;28;20037;-86
2022/11/30 01:21:19;;;;;;;0.20;0.20;;;3.20;99.90;;;;;;5064414;28;20074;-85
2022/11/30 01:23:45;;;;;;;1.95;0.77;;;3.20;99.90;;;;;;5030145;28;20144;-84
2022/11/30 01:26:11;;;;;;;2.08;0.63;;;3.30;99.90;;;;;;5048065;28;20029;-84
2022/11/30 01:28:39;;;;;;;0.55;0.55;;;3.30;99.90;;;;;;5047248;28;20041;-84
2022/11/30 01:31:07;;;;;;;0.65;0.50;;;3.30;99.90;;;;;;5030252;28;20029;-85
2022/11/30 01:33:33;;;;;;;0.55;0.55;;;3.30;99.90;;;;;;5030028;28;20040;-84
2022/11/30 01:36:08;;;;;;;0.10;0.10;;;3.30;99.90;;;;;;5048493;28;20420;-84
2022/11/30 01:38:38;;;;;;;2.08;0.90;;;3.40;99.90;;;;;;5048738;28;20056;-88
2022/11/30 01:41:05;;;;;;;0.30;0.30;;;3.40;99.90;;;;;;5022356;28;20060;-88
2022/11/30 01:43:45;;;;;;;0.20;0.20;;;3.50;99.90;;;;;;5029776;28;20041;-84
2022/11/30 01:46:35;;;;;;;0.20;0.20;;;3.80;99.90;;;;;;5047031;28;20033;-85
2022/11/30 01:49:15;;;;;;;0.10;0.10;;;3.70;99.90;;;;;;5056696;28;20051;-85
2022/11/30 01:51:52;;;;;;;0.20;0.20;;;3.70;99.90;;;;;;5029977;28;20071;-85
2022/11/30 01:54:22;;;;;;;0.40;0.40;;;3.60;99.90;;;;;;5024146;28;20029;-84
2022/11/30 01:56:54;;;;;;;0.10;0.10;;;3.50;99.90;;;;;;5007019;28;1185889;-84
2022/11/30 01:59:22;;;;;;;0.65;0.65;;;3.30;99.90;;;;;;5048656;28;20024;-85
2022/11/30 02:01:48;;;;;;;0.55;0.55;;;3.20;99.90;;;;;;5048888;28;20040;-84
2022/11/30 02:04:19;;;;;;;0.35;0.35;;;3.10;99.90;;;;;;5049589;28;20451;-85
2022/11/30 02:06:46;;;;;;;0.10;0.10;;;3.10;99.90;;;;;;5049022;28;20064;-85
2022/11/30 02:09:12;;;;;;;0.20;0.20;;;3.10;99.90;;;;;;5033659;28;20764;-85
2022/11/30 02:11:38;;;;;;;0.85;0.85;;;3.20;99.90;;;;;;5029502;28;20593;-84
2022/11/30 02:14:13;;;;;;;0.10;0.10;;;3.30;99.90;;;;;;5048123;28;20040;-85
2022/11/30 02:17:02;;;;;;;0.38;0.38;;;3.10;99.90;;;;;;5056984;28;20032;-86
2022/11/30 02:19:37;;;;;;;0.20;0.20;;;3.20;99.90;;;;;;5045894;28;20116;-84
2022/11/30 02:22:20;;;;;;;0.10;0.10;;;3.10;99.90;;;;;;5044230;28;20040;-85
2022/11/30 02:25:41;;;;;;;0.10;0.10;;;3.20;99.90;;;;;;5043805;28;20043;-83
2022/11/30 02:28:37;;;;;;;0.40;0.40;;;3.20;99.90;;;;;;5021549;28;20496;-83
2022/11/30 02:31:07;;;;;;;0.10;0.10;;;3.30;99.90;;;;;;5045061;28;20903;-85
2022/11/30 02:33:34;;;;;;;0.20;0.20;;;3.10;99.90;;;;;;5025906;28;20102;-85
2022/11/30 02:36:04;;;;;;;0.75;0.65;;;3.00;99.90;;;;;;5048308;28;20138;-85
2022/11/30 02:38:30;;;;;;;0.20;0.20;;;3.00;99.90;;;;;;5030055;28;20036;-84
2022/11/30 02:40:56;;;;;;;0.17;0.17;;;3.10;99.90;;;;;;5030174;28;20036;-85
2022/11/30 02:43:24;;;;;;;0.30;0.30;;;3.10;99.90;;;;;;5048202;28;20017;-85
2022/11/30 02:46:08;;;;;;;0.15;0.15;;;3.10;99.90;;;;;;5048172;28;20060;-85
2022/11/30 02:48:44;;;;;;;0.20;0.20;;;3.10;99.90;;;;;;5047493;28;20029;-84
2022/11/30 02:51:13;;;;;;;0.43;0.43;;;3.20;99.90;;;;;;5024106;28;20045;-85
2022/11/30 02:53:39;;;;;;;0.13;0.13;;;3.10;99.90;;;;;;5047824;28;20063;-86
2022/11/30 02:56:05;;;;;;;0.20;0.20;;;3.30;99.90;;;;;;5047682;28;20079;-85
2022/11/30 02:58:31;;;;;;;0.25;0.25;;;3.30;99.90;;;;;;5047727;28;20556;-85
2022/11/30 03:00:57;;;;;;;0.30;0.30;;;3.30;99.90;;;;;;5047839;28;20025;-84
2022/11/30 03:03:22;;;;;;;0.10;0.10;;;3.30;99.90;;;;;;5045618;28;20024;-84
2022/11/30 03:05:48;;;;;;;0.13;0.13;;;3.30;99.90;;;;;;5047247;28;20120;-84
2022/11/30 03:08:13;;;;;;;0.20;0.20;;;3.20;99.90;;;;;;5047397;28;20036;-84
2022/11/30 03:10:39;;;;;;;0.20;0.20;;;3.20;99.90;;;;;;5047341;28;20037;-84
2022/11/30 03:13:05;;;;;;;0.38;0.38;;;3.30;99.90;;;;;;5047057;28;20029;-84
2022/11/30 03:15:30;;;;;;;0.85;0.85;;;3.20;99.90;;;;;;5047178;28;20033;-84
2022/11/30 03:18:01;;;;;;;0.17;0.17;;;3.20;99.90;;;;;;5047336;28;20209;-84
2022/11/30 03:20:26;;;;;;;0.50;0.50;;;3.20;99.90;;;;;;5046653;28;20037;-83
2022/11/30 03:22:52;;;;;;;0.10;0.10;;;3.10;99.90;;;;;;5046752;28;20036;-83
2022/11/30 03:25:18;;;;;;;0.20;0.20;;;3.20;99.90;;;;;;5047107;28;20029;-84
2022/11/30 03:27:43;;;;;;;0.13;0.13;;;3.30;99.90;;;;;;5028638;28;20031;-85
2022/11/30 03:30:09;;;;;;;0.35;0.35;;;3.30;99.90;;;;;;5028246;28;20093;-83
2022/11/30 03:32:35;;;;;;;0.10;0.10;;;3.20;99.90;;;;;;5028576;28;20032;-81
2022/11/30 03:35:01;;;;;;;0.22;0.22;;;3.10;99.90;;;;;;5045932;28;20039;-82
2022/11/30 03:37:26;;;;;;;0.10;0.10;;;3.20;99.90;;;;;;5046908;28;20025;-82
2022/11/30 03:39:52;;;;;;;0.13;0.13;;;3.00;99.90;;;;;;5046614;28;20796;-83
2022/11/30 03:42:18;;;;;;;0.10;0.10;;;3.10;99.90;;;;;;5028370;28;20028;-82
2022/11/30 03:44:43;;;;;;;0.30;0.30;;;3.20;99.90;;;;;;5047655;28;20043;-82
2022/11/30 03:47:09;;;;;;;0.10;0.10;;;3.00;99.90;;;;;;5049778;28;20033;-82
2022/11/30 03:49:35;;;;;;;0.10;0.10;;;3.00;99.90;;;;;;5052155;28;20031;-83
2022/11/30 03:52:00;;;;;;;0.75;0.75;;;3.00;99.90;;;;;;5046677;28;20044;-84
2022/11/30 03:54:26;;;;;;;0.10;0.10;;;3.10;99.90;;;;;;5043995;28;20032;-84
2022/11/30 03:56:51;;;;;;;0.25;0.25;;;3.10;99.90;;;;;;5046555;28;20051;-83
2022/11/30 03:59:17;;;;;;;0.75;0.75;;;3.00;99.90;;;;;;5046514;28;20134;-83
2022/11/30 04:01:43;;;;;;;0.10;0.10;;;3.00;99.90;;;;;;5046852;28;20094;-82
2022/11/30 04:04:10;;;;;;;0.13;0.13;;;3.00;99.90;;;;;;5028655;28;20033;-82
2022/11/30 04:06:36;;;;;;;0.15;0.15;;;3.10;99.90;;;;;;5047506;28;20021;-81
2022/11/30 04:09:03;;;;;;;0.20;0.20;;;3.00;99.90;;;;;;5039187;28;20039;-82
2022/11/30 04:11:28;;;;;;;0.93;0.70;;;3.00;99.90;;;;;;5046494;28;20059;-81
2022/11/30 04:13:54;;;;;;;0.10;0.10;;;3.00;99.90;;;;;;5046612;28;20051;-81
2022/11/30 04:16:20;;;;;;;0.20;0.20;;;3.00;99.90;;;;;;5046838;28;20028;-79
2022/11/30 04:18:45;;;;;;;0.10;0.10;;;3.00;99.90;;;;;;5047496;28;20033;-79
2022/11/30 04:21:11;;;;;;;0.10;0.10;;;3.00;99.90;;;;;;5047155;28;20040;-79
2022/11/30 04:23:39;;;;;;;0.52;0.52;;;3.00;99.90;;;;;;5046729;28;20408;-80
2022/11/30 04:26:11;;;;;;;0.10;0.10;;;3.00;99.90;;;;;;5046691;28;20033;-80
2022/11/30 04:28:37;;;;;;;0.20;0.20;;;2.90;99.90;;;;;;5046860;28;20054;-81
2022/11/30 04:31:03;;;;;;;0.10;0.10;;;2.90;99.90;;;;;;5046828;28;20456;-81
2022/11/30 04:33:29;;;;;;;0.10;0.10;;;3.00;99.90;;;;;;5046793;28;20135;-82
2022/11/30 04:35:57;;;;;;;0.20;0.20;;;3.00;99.90;;;;;;5046982;28;20091;-82
2022/11/30 04:38:24;;;;;;;0.10;0.10;;;2.90;99.90;;;;;;5048752;28;20543;-81
2022/11/30 04:40:49;;;;;;;1.10;0.85;;;2.90;99.90;;;;;;5050132;28;20044;-83
2022/11/30 04:43:15;;;;;;;0.20;0.20;;;2.90;99.90;;;;;;5050225;28;20029;-85
2022/11/30 04:45:43;;;;;;;0.10;0.10;;;2.90;99.90;;;;;;5056707;28;20043;-84
2022/11/30 04:48:09;;;;;;;0.20;0.20;;;2.90;99.90;;;;;;5049422;28;20025;-82
2022/11/30 04:50:35;;;;;;;0.37;0.37;;;2.90;99.90;;;;;;5031678;28;20128;-82
2022/11/30 04:53:02;;;;;;;0.10;0.10;;;2.80;99.90;;;;;;5032050;28;20945;-83
2022/11/30 04:55:27;;;;;;;0.10;0.10;;;2.70;99.90;;;;;;5032755;28;20067;-83
2022/11/30 04:57:53;;;;;;;6.13;2.45;;;2.70;99.90;;;;;;5049967;28;20138;-82
2022/11/30 05:00:19;;;;;;;0.10;0.10;;;2.60;99.90;;;;;;5049797;28;20065;-82
2022/11/30 05:02:45;;;;;;;0.05;0.05;;;2.70;99.90;;;;;;5049192;28;20056;-80
2022/11/30 05:05:10;;;;;;;0.55;0.50;;;2.70;99.90;;;;;;5049263;28;20921;-82
2022/11/30 05:07:37;;;;;;;0.10;0.10;;;2.70;99.90;;;;;;5048357;28;20071;-84
2022/11/30 05:10:04;;;;;;;0.10;0.10;;;2.70;99.90;;;;;;5044615;28;20060;-82
2022/11/30 05:12:30;;;;;;;0.20;0.20;;;2.70;99.90;;;;;;5049602;28;20491;-83
2022/11/30 05:14:55;;;;;;;0.17;0.17;;;2.80;99.90;;;;;;5049131;28;20163;-81
2022/11/30 05:17:21;;;;;;;0.10;0.10;;;2.80;99.90;;;;;;5049966;28;20498;-83
2022/11/30 05:19:47;;;;;;;0.10;0.10;;;2.70;99.90;;;;;;5031246;28;20484;-84
2022/11/30 05:22:12;;;;;;;0.10;0.10;;;2.60;99.90;;;;;;5049569;28;20855;-83
2022/11/30 05:24:38;;;;;;;10.68;2.17;;;2.70;99.90;;;;;;5049140;28;20483;-82
2022/11/30 05:27:04;;;;;;;0.20;0.20;;;2.70;99.90;;;;;;5049716;28;20456;-82
2022/11/30 05:29:29;;;;;;;0.20;0.20;;;2.70;99.90;;;;;;5048659;28;20033;-81
2022/11/30 05:31:55;;;;;;;0.30;0.30;;;2.60;99.90;;;;;;5035083;28;20132;-82
2022/11/30 05:34:20;;;;;;;0.30;0.30;;;2.70;99.90;;;;;;5053665;28;20033;-79
2022/11/30 05:36:46;;;;;;;0.10;0.10;;;2.80;99.90;;;;;;5049932;28;20578;-80
2022/11/30 05:39:12;;;;;;;0.10;0.10;;;2.70;99.90;;;;;;5049190;28;20029;-81
2022/11/30 05:41:37;;;;;;;0.10;0.10;;;2.90;99.90;;;;;;5049258;28;20033;-87
2022/11/30 05:44:04;;;;;;;0.10;0.10;;;3.00;99.90;;;;;;5031276;28;20029;-84
2022/11/30 05:46:29;;;;;;;5.72;0.63;;;3.10;99.90;;;;;;5050378;28;20606;-88
2022/11/30 05:48:55;;;;;;;0.10;0.10;;;3.10;99.90;;;;;;5049098;28;20467;-82
2022/11/30 05:51:22;;;;;;;0.10;0.10;;;3.10;99.90;;;;;;5048877;28;20029;-84
2022/11/30 05:53:48;;;;;;;0.10;0.10;;;3.20;99.90;;;;;;5049175;28;20029;-84
2022/11/30 05:56:16;;;;;;;0.10;0.10;;;2.80;99.90;;;;;;5051072;28;20060;-91
2022/11/30 05:58:43;;;;;;;0.10;0.10;;;2.90;99.90;;;;;;5033614;28;20106;-87
2022/11/30 06:01:17;;;;;;;0.10;0.10;;;3.00;99.90;;;;;;5032396;28;20017;-85
2022/11/30 06:03:43;;;;;;;0.15;0.15;;;3.20;99.90;;;;;;5049599;28;20423;-89
2022/11/30 06:06:09;;;;;;;0.10;0.10;;;3.10;99.90;;;;;;5032934;28;20025;-84
2022/11/30 06:08:34;;;;;;;0.10;0.10;;;3.20;99.90;;;;;;5031641;28;20047;-85
2022/11/30 06:11:00;;;;;;;0.10;0.10;;;3.10;99.90;;;;;;5048332;28;20084;-80
2022/11/30 06:13:26;;;;;;;0.10;0.10;;;2.90;99.90;;;;;;5046759;28;20090;-83
2022/11/30 06:15:52;;;;;;;0.10;0.10;;;3.10;99.90;;;;;;5029453;28;20033;-83
2022/11/30 06:18:17;;;;;;;0.10;0.10;;;3.10;99.90;;;;;;5043131;28;20568;-81
2022/11/30 06:20:43;;;;;;;0.10;0.10;;;3.10;99.90;;;;;;5044073;28;20036;-83
2022/11/30 06:23:09;;;;;;;0.20;0.20;;;3.00;99.90;;;;;;5030369;28;20060;-79
2022/11/30 06:25:34;;;;;;;0.10;0.10;;;3.00;99.90;;;;;;5047797;28;20632;-81
2022/11/30 06:28:00;;;;;;;0.10;0.10;;;2.80;99.90;;;;;;5048334;28;20029;-81
2022/11/30 06:30:26;;;;;;;0.20;0.20;;;2.90;99.90;;;;;;5048279;28;20028;-82
2022/11/30 06:32:51;;;;;;;0.10;0.10;;;3.00;99.90;;;;;;5048708;28;20098;-82
2022/11/30 06:35:18;;;;;;;0.28;0.28;;;2.80;99.90;;;;;;5046647;28;20033;-82
2022/11/30 06:37:44;;;;;;;0.10;0.10;;;2.60;99.90;;;;;;5029706;28;20029;-82
2022/11/30 06:40:11;;;;;;;0.10;0.10;;;2.60;99.90;;;;;;5047725;28;20033;-85
2022/11/30 06:42:38;;;;;;;0.10;0.10;;;2.60;99.90;;;;;;5028074;28;20034;-88
2022/11/30 06:45:05;;;;;;;0.10;0.10;;;2.90;99.90;;;;;;5044351;28;20035;-84
2022/11/30 06:47:31;;;;;;;0.10;0.10;;;2.50;99.90;;;;;;5048065;28;20040;-84
2022/11/30 06:49:57;;;;;;;1.55;0.40;;;2.50;99.90;;;;;;5047395;28;20037;-83
2022/11/30 06:52:23;;;;;;;0.10;0.10;;;2.40;99.90;;;;;;5047506;28;20101;-86
2022/11/30 06:54:49;;;;;;;0.10;0.10;;;2.50;99.90;;;;;;5030126;28;20048;-86
2022/11/30 06:57:15;;;;;;;0.10;0.10;;;2.60;99.90;;;;;;5028631;28;20080;-90
2022/11/30 06:59:41;;;;;;;0.10;0.10;;;2.60;99.90;;;;;;5025858;28;20037;-84
2022/11/30 07:02:14;;;;;;;0.10;0.10;;;2.70;99.90;;;;;;5026495;28;20021;-83
2022/11/30 07:04:40;;;;;;;0.10;0.10;;;2.70;99.90;;;;;;5027891;28;20068;-84
2022/11/30 07:07:06;;;;;;;0.20;0.20;;;2.50;99.90;;;;;;5028340;28;20029;-86
2022/11/30 07:09:33;;;;;;;0.10;0.10;;;2.70;99.90;;;;;;5027014;28;20412;-86
2022/11/30 07:11:59;;;;;;;0.10;0.10;;;2.60;99.90;;;;;;5026539;28;20038;-85
2022/11/30 07:14:25;;;;;;;0.10;0.10;;;2.70;99.90;;;;;;5026847;28;20503;-86
2022/11/30 07:16:51;;;;;;;0.10;0.10;;;2.60;99.90;;;;;;5027455;28;20040;-84
2022/11/30 07:19:17;;;;;;;0.10;0.10;;;2.50;99.90;;;;;;5028072;28;20036;-84
2022/11/30 07:21:43;;;;;;;0.20;0.20;;;2.40;99.90;;;;;;5026047;28;20029;-84
2022/11/30 07:26:57;;;;;;;0.10;0.10;;;2.50;99.90;;;;;;5028793;28;20037;-83
2022/11/30 07:29:23;;;;;;;0.05;0.05;;;2.60;99.90;;;;;;5027363;28;20037;-85
2022/11/30 07:31:52;;;;;;;0.10;0.10;;;2.60;99.90;;;;;;5027656;28;20037;-85
2022/11/30 07:34:18;;;;;;;0.10;0.10;;;2.60;99.90;;;;;;5027662;28;20112;-82
2022/11/30 07:36:44;;;;;;;0.20;0.20;;;2.60;99.90;;;;;;5029947;28;20615;-88
2022/11/30 07:39:11;;;;;;;0.55;0.55;;;2.70;99.90;;;;;;5032810;28;20025;-82
2022/11/30 07:41:37;;;;;;;0.10;0.10;;;2.60;99.90;;;;;;5027630;28;20030;-82
2022/11/30 07:44:07;;;;;;;0.10;0.10;;;2.80;99.90;;;;;;5027563;28;20152;-82
2022/11/30 07:46:34;;;;;;;0.43;0.40;;;2.80;99.90;;;;;;5026599;28;20524;-82
2022/11/30 07:49:04;;;;;;;;;;;2.80;99.90;;;;;;5026126;28;20099;-83
2022/11/30 07:51:30;;;;;;;0.10;0.10;;;2.80;99.90;;;;;;5024662;28;19956;-83
2022/11/30 07:53:57;;;;;;;0.63;0.63;;;2.90;99.90;;;;;;5027793;28;20033;-83
2022/11/30 07:56:23;;;;;;;0.25;0.25;;;2.90;99.90;;;;;;5025826;28;20053;-83
2022/11/30 07:58:53;;;;;;;0.10;0.10;;;2.80;99.90;;;;;;5025782;28;20037;-83
2022/11/30 08:01:21;;;;;;;0.15;0.15;;;2.50;99.90;;;;;;5027054;28;20291;-83
2022/11/30 08:03:48;;;;;;;0.32;0.32;;;2.60;99.90;;;;;;5027270;28;20032;-82
2022/11/30 08:06:19;;;;;;;0.10;0.10;;;2.90;99.90;;;;;;5025825;28;20033;-83
2022/11/30 08:08:47;;;;;;;0.10;0.10;;;3.30;99.90;;;;;;5027269;28;20105;-82
2022/11/30 08:11:15;;;;;;;0.10;0.10;;;3.20;99.90;;;;;;5027656;28;20089;-82
2022/11/30 08:13:41;;;;;;;0.50;0.50;;;3.00;99.90;;;;;;5030051;28;20040;-82
2022/11/30 08:16:11;;;;;;;0.10;0.10;;;2.90;99.90;;;;;;5031890;28;20033;-83
2022/11/30 08:18:38;;;;;;;0.30;0.30;;;2.80;99.90;;;;;;5031516;28;20033;-82
2022/11/30 08:21:05;;;;;;;0.10;0.10;;;3.00;99.90;;;;;;5031221;28;20599;-83
2022/11/30 08:23:33;;;;;;;0.10;0.10;;;3.00;99.90;;;;;;5030089;28;20775;-82
2022/11/30 08:26:08;;;;;;;0.10;0.10;;;3.40;99.90;;;;;;5031162;28;20038;-83
2022/11/30 08:28:37;;;;;;;0.10;0.10;;;3.40;99.90;;;;;;5032126;28;20025;-82
2022/11/30 08:31:05;;;;;;;0.20;0.20;;;3.40;99.90;;;;;;5033340;28;20134;-82
2022/11/30 08:33:32;;;;;;;0.10;0.10;;;3.20;99.90;;;;;;5029264;28;20036;-82
2022/11/30 08:36:15;;;;;;;0.10;0.10;;;3.40;99.90;;;;;;5030712;28;20041;-82
2022/11/30 08:38:42;;;;;;;0.10;0.10;;;3.70;99.90;;;;;;5029927;28;20025;-82
2022/11/30 08:41:11;;;;;;;1.48;0.75;;;3.70;99.90;;;;;;5029319;28;20572;-82
2022/11/30 08:43:37;;;;;;;0.10;0.10;;;3.50;99.90;;;;;;5030874;28;20029;-83
2022/11/30 08:46:06;;;;;;;0.10;0.10;;;3.70;99.90;;;;;;5030772;28;20040;-82
2022/11/30 08:48:32;;;;;;;0.10;0.10;;;3.80;99.90;;;;;;5030713;28;20029;-83
2022/11/30 08:51:03;;;;;;;0.20;0.20;;;3.70;99.90;;;;;;5028943;28;20116;-83
2022/11/30 08:53:29;;;;;;;0.10;0.10;;;3.50;99.90;;;;;;5030887;28;20047;-82
2022/11/30 08:56:00;;;;;;;0.10;0.10;;;4.10;99.90;;;;;;5038678;28;20057;-82
2022/11/30 08:58:29;;;;;;;0.10;0.10;;;4.10;99.90;;;;;;5050780;28;20024;-83
2022/11/30 09:00:54;;;;;;;0.10;0.10;;;4.30;99.90;;;;;;5032412;28;20033;-82
2022/11/30 09:03:20;;;;;;;0.10;0.10;;;4.50;99.90;;;;;;5050202;28;20025;-83
2022/11/30 09:05:46;;;;;;;0.10;0.10;;;4.20;99.90;;;;;;5032085;28;20094;-83
2022/11/30 09:08:12;;;;;;;0.10;0.10;;;4.40;99.90;;;;;;5046289;28;20033;-82
2022/11/30 09:10:37;;;;;;;0.10;0.10;;;4.50;99.90;;;;;;5050354;28;20500;-82
2022/11/30 09:13:03;;;;;;;0.32;0.32;;;4.30;99.90;;;;;;5050434;28;20488;-82
2022/11/30 09:15:29;;;;;;;0.10;0.10;;;4.30;99.90;;;;;;5031724;28;20059;-83
2022/11/30 09:17:54;;;;;;;0.20;0.20;;;4.10;99.90;;;;;;5046066;28;20079;-82
2022/11/30 09:20:20;;;;;;;0.20;0.20;;;3.90;99.90;;;;;;5049897;28;21039;-82
2022/11/30 09:22:45;;;;;;;0.20;0.20;;;3.90;99.90;;;;;;5050174;28;20629;-82
2022/11/30 09:25:11;;;;;;;0.10;0.10;;;3.90;99.90;;;;;;5047796;28;20813;-83
2022/11/30 09:27:37;;;;;;;0.10;0.10;;;4.00;99.90;;;;;;5049628;28;20400;-82
2022/11/30 09:30:03;;;;;;;0.30;0.30;;;4.40;99.90;;;;;;5050455;28;20800;-83
2022/11/30 09:32:28;;;;;;;0.10;0.10;;;4.40;99.90;;;;;;5056853;28;20020;-83
2022/11/30 09:34:54;;;;;;;0.30;0.30;;;4.00;99.90;;;;;;5063454;28;20036;-83
2022/11/30 09:37:21;;;;;;;0.10;0.10;;;4.20;99.90;;;;;;5049695;28;20017;-83
2022/11/30 09:39:46;;;;;;;1.00;0.47;;;4.20;99.90;;;;;;5031367;28;20037;-82
2022/11/30 09:42:31;;;;;;;0.10;0.10;;;4.40;99.90;;;;;;5031667;28;20040;-82
2022/11/30 09:45:18;;;;;;;0.10;0.10;;;4.60;99.90;;;;;;5048887;28;20025;-82
2022/11/30 09:48:04;;;;;;;0.10;0.10;;;4.90;99.90;;;;;;5031082;28;20470;-83
2022/11/30 09:50:37;;;;;;;0.10;0.10;;;4.60;99.90;;;;;;5049242;28;20052;-83
2022/11/30 09:53:10;;;;;;;0.20;0.20;;;4.80;99.90;;;;;;5050181;28;20036;-83
2022/11/30 09:55:40;;;;;;;0.10;0.10;;;5.40;99.90;;;;;;5038948;28;20072;-82
2022/11/30 09:58:10;;;;;;;0.15;0.15;;;5.40;99.90;;;;;;5049498;28;20090;-83
2022/11/30 10:00:38;;;;;;;0.30;0.30;;;4.80;99.90;;;;;;5052438;28;20029;-83
2022/11/30 10:03:04;;;;;;;0.20;0.20;;;5.10;99.90;;;;;;5049186;28;20033;-82
2022/11/30 10:05:46;;;;;;;0.10;0.10;;;5.20;99.90;;;;;;5057402;28;20032;-83
2022/11/30 10:08:37;;;;;;;0.20;0.20;;;5.20;99.90;;;;;;5043390;28;20033;-83
2022/11/30 10:11:31;;;;;;;0.40;0.40;;;5.10;99.90;;;;;;5048668;28;20025;-83
2022/11/30 10:14:09;;;;;;;0.10;0.10;;;5.00;99.90;;;;;;5043962;28;20043;-82
2022/11/30 10:16:46;;;;;;;0.30;0.30;;;5.20;99.90;;;;;;5049504;28;20088;-83
2022/11/30 10:19:32;;;;;;;1.75;0.55;;;5.30;99.90;;;;;;5049054;28;20676;-82
2022/11/30 10:22:21;;;;;;;0.95;0.95;;;5.60;99.90;;;;;;5043081;28;20120;-83
2022/11/30 10:25:06;;;;;;;0.10;0.10;;;5.70;99.90;;;;;;5030809;28;20035;-83
2022/11/30 10:27:41;;;;;;;0.10;0.10;;;5.60;99.90;;;;;;5049101;28;20032;-84
2022/11/30 10:30:22;;;;;;;0.38;0.38;;;5.40;99.90;;;;;;5043225;28;20040;-83
2022/11/30 10:32:58;;;;;;;0.10;0.10;;;5.40;99.90;;;;;;5030105;28;20033;-83
2022/11/30 10:35:36;;;;;;;0.15;0.15;;;5.40;99.90;;;;;;5055251;28;20416;-83
2022/11/30 10:38:14;;;;;;;0.10;0.10;;;5.50;99.90;;;;;;5048711;28;20037;-83
2022/11/30 10:40:56;;;;;;;5.85;0.85;;;5.50;99.90;;;;;;5030113;28;20075;-83
2022/11/30 10:43:25;;;;;;;0.10;0.10;;;5.50;99.90;;;;;;5029631;28;20036;-83
2022/11/30 10:45:50;;;;;;;0.10;0.10;;;5.70;99.90;;;;;;5029477;28;20029;-83
2022/11/30 10:48:19;;;;;;;0.15;0.15;;;5.60;99.90;;;;;;5029538;28;20044;-84
2022/11/30 10:50:45;;;;;;;0.15;0.15;;;5.80;99.90;;;;;;5047468;28;20032;-83
2022/11/30 10:53:12;;;;;;;0.20;0.20;;;5.50;99.90;;;;;;5048324;28;20036;-84
2022/11/30 10:55:53;;;;;;;0.17;0.17;;;5.40;99.90;;;;;;5047369;28;20064;-83
2022/11/30 10:58:33;;;;;;;0.10;0.10;;;5.80;99.90;;;;;;5029441;28;20087;-83
2022/11/30 11:01:02;;;;;;;0.40;0.40;;;5.70;99.90;;;;;;5030173;28;20039;-84
2022/11/30 11:03:28;;;;;;;0.10;0.10;;;5.90;99.90;;;;;;5047301;28;20060;-84
2022/11/30 11:06:22;;;;;;;0.20;0.20;;;6.40;99.90;;;;;;5029680;28;20029;-84
2022/11/30 11:08:49;;;;;;;0.10;0.10;;;6.60;99.90;;;;;;5039151;28;20083;-84
2022/11/30 11:11:37;;;;;;;3.85;0.73;;;6.00;99.90;;;;;;5029886;28;20516;-84
2022/11/30 11:14:19;;;;;;;0.20;0.20;;;5.60;99.90;;;;;;5023481;28;20508;-85
2022/11/30 11:17:33;;;;;;;1.45;0.57;;;5.60;99.90;;;;;;5047449;28;20050;-84
2022/11/30 11:19:58;;;;;;;0.20;0.20;;;5.90;99.90;;;;;;5031743;28;20515;-84
2022/11/30 11:22:29;;;;;;;0.55;0.55;;;6.50;99.90;;;;;;5030205;28;20056;-85
2022/11/30 11:25:20;;;;;;;0.20;0.20;;;6.70;99.90;;;;;;5047887;28;20048;-84
2022/11/30 11:27:52;;;;;;;0.82;0.82;;;7.20;99.90;;;;;;5033348;28;20527;-84
2022/11/30 11:30:28;;;;;;;2.03;1.00;;;7.20;99.90;;;;;;5028773;28;20733;-85
2022/11/30 11:33:27;;;;;;;0.17;0.17;;;7.10;99.90;;;;;;5047392;28;20033;-85
2022/11/30 11:35:54;;;;;;;0.25;0.25;;;7.00;99.90;;;;;;5040582;28;20043;-84
2022/11/30 11:38:26;;;;;;;;;;;6.70;99.90;;;;;;5048175;28;20025;-87
2022/11/30 11:41:18;;;;;;;0.20;0.20;;;6.50;99.90;;;;;;5035300;28;19909;-84
2022/11/30 11:44:09;;;;;;;0.20;0.20;;;6.60;99.90;;;;;;5056864;28;20107;-87
2022/11/30 11:46:50;;;;;;;0.20;0.20;;;6.70;99.90;;;;;;5047697;28;20029;-81
2022/11/30 11:49:37;;;;;;;0.30;0.30;;;6.80;99.90;;;;;;5042362;28;20106;-83
2022/11/30 11:52:04;;;;;;;;;;;6.70;99.90;;;;;;5053002;28;20110;-87
2022/11/30 11:54:48;;;;;;;0.10;0.10;;;6.90;99.90;;;;;;5051454;28;20380;-85
2022/11/30 11:57:16;;;;;;;0.10;0.10;;;6.10;99.90;;;;;;5060192;28;20045;-84
2022/11/30 11:59:55;;;;;;;0.10;0.10;;;6.60;99.90;;;;;;5051431;28;20036;-86
2022/11/30 12:02:49;;;;;;;0.40;0.40;;;6.90;99.90;;;;;;5052050;28;20480;-87
2022/11/30 12:05:20;;;;;;;1.65;0.80;;;6.60;99.90;;;;;;5050578;28;20090;-86
2022/11/30 12:08:06;;;;;;;0.15;0.15;;;6.60;99.90;;;;;;5034703;28;20115;-86
2022/11/30 12:10:37;;;;;;;0.10;0.10;;;6.50;99.90;;;;;;5051220;28;20037;-85
2022/11/30 12:13:11;;;;;;;0.30;0.30;;;6.50;99.90;;;;;;5060709;28;20043;-85
2022/11/30 12:16:03;;;;;;;0.60;0.55;;;6.60;99.90;;;;;;5059627;28;20062;-85
2022/11/30 12:18:36;;;;;;;0.35;0.35;;;6.70;99.90;;;;;;5033220;28;20032;-84
2022/11/30 12:21:12;;;;;;;0.63;0.63;;;7.00;99.90;;;;;;5050796;28;20025;-84
2022/11/30 12:24:10;;;;;;;1.25;1.15;;;7.00;99.90;;;;;;5027268;28;20028;-87
2022/11/30 12:26:43;;;;;;;0.20;0.20;;;6.80;99.90;;;;;;5032683;28;20087;-85
2022/11/30 12:29:38;;;;;;;0.40;0.40;;;6.60;99.90;;;;;;5065838;28;20485;-85
2022/11/30 12:32:35;;;;;;;0.10;0.10;;;6.40;99.90;;;;;;5048355;28;20106;-85
2022/11/30 12:35:23;;;;;;;0.32;0.32;;;6.10;99.90;;;;;;5027529;28;20093;-84
2022/11/30 12:38:07;;;;;;;0.20;0.20;;;6.10;99.90;;;;;;5033160;28;20029;-84
2022/11/30 12:41:07;;;;;;;0.20;0.20;;;5.90;99.90;;;;;;5033158;28;20021;-85
2022/11/30 12:43:47;;;;;;;0.30;0.30;;;5.80;99.90;;;;;;5065504;28;20089;-86
2022/11/30 12:46:31;;;;;;;1.60;1.17;;;6.10;99.90;;;;;;5050637;28;20044;-85
2022/11/30 12:49:15;;;;;;;0.10;0.10;;;6.00;99.90;;;;;;5048804;28;20093;-85
2022/11/30 12:52:16;;;;;;;0.10;0.10;;;6.00;99.90;;;;;;5050481;28;20033;-85
2022/11/30 12:54:56;;;;;;;0.47;0.47;;;6.00;99.90;;;;;;5031974;28;20855;-85
2022/11/30 12:57:22;;;;;;;0.30;0.30;;;6.10;99.90;;;;;;5050202;28;20041;-85
2022/11/30 13:00:10;;;;;;;0.25;0.25;;;6.10;99.90;;;;;;5050375;28;20116;-85
2022/11/30 13:02:38;;;;;;;0.10;0.10;;;6.20;99.90;;;;;;5050258;28;20021;-85
2022/11/30 13:05:14;;;;;;;0.20;0.20;;;6.30;99.90;;;;;;5064813;28;20033;-85
2022/11/30 13:07:57;;;;;;;0.10;0.10;;;5.90;99.90;;;;;;5030143;28;20063;-85
2022/11/30 13:10:45;;;;;;;0.47;0.47;;;5.90;99.90;;;;;;5050254;28;20028;-85
2022/11/30 13:13:32;;;;;;;0.28;0.28;;;6.20;99.90;;;;;;5028405;28;20433;-85
2022/11/30 13:16:00;;;;;;;0.55;0.55;;;6.10;99.90;;;;;;5049820;28;20115;-85
2022/11/30 13:18:27;;;;;;;0.68;0.68;;;6.10;99.90;;;;;;5055836;28;20033;-86